Aviation Digital Data Service (ADDS)

Output produced by METARs form (2355 UTC 20 January 2019)
found at http://www.aviationweather.gov/metar/data/
 
Forecast for: KMYR (MYRTLE BEACH , SC, US)
Text: KMYR 202320Z 2100/2124 31011KT P6SM SKC
Forecast period: 0000 to 1400 UTC 21 January 2019
Forecast type: FROM: standard forecast or significant change
Winds: from the NW (310 degrees) at 13 MPH (11 knots; 5.7 m/s)
Visibility: 6 or more miles 10+ km)
Clouds: clear skies
Weather: no significant weather forecast for this period
Text: FM211400 34014G21KT P6SM SKC
Forecast period: 1400 UTC 21 January 2019 to 0000 UTC 22 January 2019
Forecast type: FROM: standard forecast or significant change
Winds: from the NNW (340 degrees) at 16 MPH (14 knots; 7.2 m/s)
gusting to 24 MPH (21 knots; 10.8 m/s)
Visibility: 6 or more miles 10+ km)
Clouds: clear skies
Weather: no significant weather forecast for this period